createdAt,value
2018-06-17T00:00:32.373Z,11.90
2018-06-17T00:03:01.078Z,11.27
2018-06-17T00:05:28.964Z,11.50
2018-06-17T00:07:56.722Z,12.10
2018-06-17T00:10:24.903Z,12.10
2018-06-17T00:12:52.767Z,11.70
2018-06-17T00:15:20.763Z,11.50
2018-06-17T00:17:48.660Z,12.90
2018-06-17T00:20:16.574Z,12.00
2018-06-17T00:22:44.425Z,12.13
2018-06-17T00:25:12.637Z,11.87
2018-06-17T00:27:40.373Z,12.80
2018-06-17T00:30:08.289Z,10.80
2018-06-17T00:32:36.163Z,11.63
2018-06-17T00:35:04.854Z,12.17
2018-06-17T00:37:32.725Z,11.40
2018-06-17T00:40:00.591Z,12.23
2018-06-17T00:42:28.629Z,12.43
2018-06-17T00:44:56.507Z,12.77
2018-06-17T00:47:24.509Z,10.10
2018-06-17T00:49:52.374Z,12.57
2018-06-17T00:52:20.395Z,11.00
2018-06-17T00:54:48.276Z,12.03
2018-06-17T00:57:21.753Z,12.40
2018-06-17T00:59:49.621Z,11.70
2018-06-17T01:02:17.467Z,12.07
2018-06-17T01:04:45.306Z,11.67
2018-06-17T01:07:13.695Z,13.73
2018-06-17T01:09:41.566Z,13.37
2018-06-17T01:12:09.435Z,14.43
2018-06-17T01:14:37.333Z,13.40
2018-06-17T01:17:05.185Z,12.97
2018-06-17T01:19:33.082Z,12.73
2018-06-17T01:22:01.222Z,11.77
2018-06-17T01:24:29.105Z,12.57
2018-06-17T01:26:56.968Z,13.47
2018-06-17T01:29:24.668Z,10.93
2018-06-17T01:31:52.539Z,11.60
2018-06-17T01:34:20.437Z,13.50
2018-06-17T01:36:48.356Z,13.40
2018-06-17T01:39:16.063Z,13.70
2018-06-17T01:41:43.919Z,14.50
2018-06-17T01:44:11.789Z,13.73
2018-06-17T01:46:39.646Z,12.30
2018-06-17T01:49:07.484Z,11.40
2018-06-17T01:51:35.213Z,11.20
2018-06-17T01:54:03.155Z,11.00
2018-06-17T01:56:31.057Z,12.37
2018-06-17T01:58:59.535Z,10.27
2018-06-17T02:01:27.463Z,11.83
2018-06-17T02:04:00.995Z,12.83
2018-06-17T02:06:34.483Z,13.20
2018-06-17T02:09:08.141Z,13.50
2018-06-17T02:11:40.058Z,13.87
2018-06-17T02:14:13.476Z,12.70
2018-06-17T02:16:42.282Z,11.70
2018-06-17T02:19:10.235Z,12.57
2018-06-17T02:21:38.412Z,13.10
2018-06-17T02:24:06.748Z,12.20
2018-06-17T02:26:35.460Z,11.73
2018-06-17T02:29:03.310Z,11.93
2018-06-17T02:31:31.396Z,13.00
2018-06-17T02:33:59.298Z,12.27
2018-06-17T02:36:27.139Z,13.00
2018-06-17T02:38:54.983Z,12.70
2018-06-17T02:41:23.011Z,12.73
2018-06-17T02:43:50.876Z,12.83
2018-06-17T02:46:25.014Z,12.47
2018-06-17T02:48:58.679Z,12.50
2018-06-17T02:52:31.859Z,12.40
2018-06-17T02:54:59.752Z,14.00
2018-06-17T02:57:27.647Z,12.63
2018-06-17T02:59:55.478Z,14.20
2018-06-17T03:02:23.217Z,13.53
2018-06-17T03:04:51.054Z,14.57
2018-06-17T03:07:19.544Z,13.83
2018-06-17T03:09:47.502Z,12.13
2018-06-17T03:12:15.371Z,13.80
2018-06-17T03:14:43.242Z,15.07
2018-06-17T03:17:11.721Z,13.43
2018-06-17T03:19:39.579Z,16.53
2018-06-17T03:22:07.532Z,15.77
2018-06-17T03:24:40.993Z,14.53
2018-06-17T03:27:14.458Z,13.60
2018-06-17T03:29:48.072Z,12.87
2018-06-17T03:32:23.861Z,12.47
2018-06-17T03:34:57.234Z,12.83
2018-06-17T03:37:25.103Z,13.40
2018-06-17T03:39:52.942Z,13.27
2018-06-17T03:42:22.575Z,13.50
2018-06-17T03:44:50.415Z,12.97
2018-06-17T03:47:18.267Z,12.03
2018-06-17T03:49:46.146Z,13.40
2018-06-17T03:52:14.002Z,14.30
2018-06-17T03:54:41.970Z,13.97
2018-06-17T03:57:09.818Z,14.50
2018-06-17T03:59:37.672Z,13.10
2018-06-17T04:02:05.394Z,12.50
2018-06-17T04:04:38.878Z,13.17
2018-06-17T04:07:07.449Z,14.30
2018-06-17T04:09:35.280Z,14.20
2018-06-17T04:12:03.309Z,14.60
2018-06-17T04:14:31.626Z,14.13
2018-06-17T04:17:04.543Z,13.60
2018-06-17T04:19:32.417Z,15.00
2018-06-17T04:22:00.315Z,12.93
2018-06-17T04:24:28.159Z,13.50
2018-06-17T04:26:56.012Z,15.20
2018-06-17T04:29:24.545Z,14.10
2018-06-17T04:31:52.508Z,15.40
2018-06-17T04:34:20.367Z,14.50
2018-06-17T04:36:48.212Z,15.37
2018-06-17T04:39:16.090Z,15.50
2018-06-17T04:41:43.955Z,14.63
2018-06-17T04:44:11.824Z,14.40
2018-06-17T04:46:39.674Z,15.13
2018-06-17T04:49:07.542Z,14.00
2018-06-17T04:51:36.100Z,13.60
2018-06-17T04:54:03.954Z,15.63
2018-06-17T04:56:31.857Z,15.27
2018-06-17T04:58:59.706Z,15.30
2018-06-17T05:01:28.531Z,14.73
2018-06-17T05:03:56.590Z,14.17
2018-06-17T05:06:24.433Z,12.63
2018-06-17T05:08:52.262Z,13.73
2018-06-17T05:11:20.381Z,14.60
2018-06-17T05:13:48.275Z,13.07
2018-06-17T05:16:16.685Z,13.37
2018-06-17T05:18:44.432Z,14.57
2018-06-17T05:21:12.812Z,14.50
2018-06-17T05:23:40.688Z,14.87
2018-06-17T05:26:08.558Z,14.30
2018-06-17T05:28:36.574Z,15.40
2018-06-17T05:31:04.492Z,14.97
2018-06-17T05:33:32.456Z,15.63
2018-06-17T05:36:00.336Z,14.30
2018-06-17T05:38:28.180Z,14.80
2018-06-17T05:40:56.667Z,14.90
2018-06-17T05:43:24.404Z,14.30
2018-06-17T05:45:52.253Z,12.67
2018-06-17T05:48:20.126Z,14.50
2018-06-17T05:50:47.993Z,17.00
2018-06-17T05:53:15.885Z,12.67
2018-06-17T05:55:43.854Z,13.50
2018-06-17T05:58:11.613Z,13.47
2018-06-17T06:00:39.845Z,12.80
2018-06-17T06:03:07.670Z,14.07
2018-06-17T06:05:35.585Z,13.33
2018-06-17T06:08:03.466Z,12.30
2018-06-17T06:10:31.311Z,12.50
2018-06-17T06:12:59.186Z,12.27
2018-06-17T06:15:27.065Z,10.63
2018-06-17T06:17:55.003Z,12.70
2018-06-17T06:20:22.747Z,12.03
2018-06-17T06:22:51.136Z,10.60
2018-06-17T06:25:19.077Z,11.80
2018-06-17T06:27:47.016Z,11.43
2018-06-17T06:30:15.487Z,11.90
2018-06-17T06:32:43.375Z,12.20
2018-06-17T06:35:11.335Z,11.13
2018-06-17T06:37:39.236Z,11.73
2018-06-17T06:40:07.214Z,11.40
2018-06-17T06:42:35.624Z,11.90
2018-06-17T06:45:03.392Z,12.93
2018-06-17T06:47:31.142Z,12.83
2018-06-17T06:49:58.919Z,13.90
2018-06-17T06:52:26.802Z,12.53
2018-06-17T06:54:55.301Z,11.60
2018-06-17T06:57:23.231Z,11.40
2018-06-17T06:59:51.148Z,11.40
2018-06-17T07:03:29.664Z,12.77
2018-06-17T07:06:08.932Z,14.20
2018-06-17T07:08:42.366Z,11.40
2018-06-17T07:11:10.262Z,10.00
2018-06-17T07:13:38.138Z,9.60
2018-06-17T07:16:15.479Z,10.90
2018-06-17T07:18:43.976Z,11.37
2018-06-17T07:21:11.819Z,10.50
2018-06-17T07:23:39.522Z,10.50
2018-06-17T07:26:31.921Z,9.90
2018-06-17T07:29:05.625Z,10.63
2018-06-17T07:31:33.337Z,10.00
2018-06-17T07:34:01.963Z,11.53
2018-06-17T07:36:31.155Z,10.90
2018-06-17T07:38:59.549Z,10.70
2018-06-17T07:41:27.575Z,10.83
2018-06-17T07:43:55.458Z,11.33
2018-06-17T07:46:23.355Z,11.97
2018-06-17T07:49:23.458Z,9.90
2018-06-17T07:52:02.900Z,12.37
2018-06-17T07:54:30.794Z,11.50
2018-06-17T07:56:58.527Z,9.67
2018-06-17T07:59:27.107Z,9.40
2018-06-17T08:01:54.877Z,10.13
2018-06-17T08:04:22.605Z,9.00
2018-06-17T08:06:50.535Z,10.07
2018-06-17T08:09:18.439Z,9.37
2018-06-17T08:11:46.856Z,9.33
2018-06-17T08:14:14.600Z,8.80
2018-06-17T08:16:42.468Z,9.30
2018-06-17T08:19:10.351Z,9.83
2018-06-17T08:21:38.206Z,9.23
2018-06-17T08:24:06.055Z,9.20
2018-06-17T08:26:33.898Z,9.70
2018-06-17T08:29:02.261Z,9.10
2018-06-17T08:31:29.975Z,8.70
2018-06-17T08:33:58.786Z,9.60
2018-06-17T08:36:26.516Z,9.73
2018-06-17T08:38:54.384Z,9.37
2018-06-17T08:41:22.323Z,9.50
2018-06-17T08:43:50.762Z,9.10
2018-06-17T08:46:18.622Z,9.60
2018-06-17T08:48:46.503Z,8.93
2018-06-17T08:51:14.382Z,9.23
2018-06-17T08:53:42.255Z,9.70
2018-06-17T08:56:10.335Z,8.40
2018-06-17T08:58:38.577Z,9.17
2018-06-17T09:01:06.450Z,9.30
2018-06-17T09:03:34.517Z,8.67
2018-06-17T09:06:02.690Z,8.50
2018-06-17T09:08:30.681Z,8.67
2018-06-17T09:10:59.057Z,8.13
2018-06-17T09:13:27.324Z,8.87
2018-06-17T09:15:55.619Z,8.27
2018-06-17T09:18:23.775Z,8.90
2018-06-17T09:20:52.473Z,8.27
2018-06-17T09:23:20.636Z,7.90
2018-06-17T09:25:48.520Z,9.10
2018-06-17T09:28:16.350Z,9.17
2018-06-17T09:30:44.269Z,9.03
2018-06-17T09:33:12.406Z,8.40
2018-06-17T09:35:40.155Z,7.90
2018-06-17T09:38:08.044Z,8.27
2018-06-17T09:40:35.810Z,8.20
2018-06-17T09:43:04.020Z,8.57
2018-06-17T09:45:31.878Z,7.80
2018-06-17T09:47:59.582Z,8.30
2018-06-17T09:50:27.627Z,7.90
2018-06-17T09:52:55.527Z,8.00
2018-06-17T09:55:24.363Z,8.43
2018-06-17T09:57:52.227Z,7.97
2018-06-17T10:00:21.406Z,7.57
2018-06-17T10:02:50.687Z,8.80
2018-06-17T10:05:19.380Z,8.50
2018-06-17T10:07:47.775Z,8.40
2018-06-17T10:10:51.999Z,7.47
2018-06-17T10:13:21.039Z,7.77
2018-06-17T10:15:49.421Z,7.30
2018-06-17T10:18:18.158Z,7.70
2018-06-17T10:20:46.144Z,8.73
2018-06-17T10:23:13.890Z,6.97
2018-06-17T10:25:41.739Z,7.07
2018-06-17T10:28:10.336Z,7.80
2018-06-17T10:30:39.751Z,7.30
2018-06-17T10:33:09.213Z,8.10
2018-06-17T10:35:37.765Z,7.87
2018-06-17T10:38:05.851Z,7.20
2018-06-17T10:40:33.747Z,7.93
2018-06-17T10:43:01.671Z,7.40
2018-06-17T10:45:29.552Z,7.23
2018-06-17T10:47:58.162Z,7.90
2018-06-17T10:50:25.962Z,8.00
2018-06-17T10:52:53.833Z,8.20
2018-06-17T10:55:21.565Z,7.27
2018-06-17T10:57:49.985Z,7.20
2018-06-17T11:00:18.808Z,6.17
2018-06-17T11:02:46.710Z,6.83
2018-06-17T11:05:14.650Z,7.10
2018-06-17T11:07:42.532Z,6.93
2018-06-17T11:10:10.434Z,6.67
2018-06-17T11:12:38.181Z,7.30
2018-06-17T11:15:06.086Z,7.53
2018-06-17T11:17:33.947Z,6.57
2018-06-17T11:20:02.362Z,8.13
2018-06-17T11:22:30.234Z,6.80
2018-06-17T11:24:58.264Z,7.87
2018-06-17T11:27:27.101Z,6.33
2018-06-17T11:29:54.981Z,6.87
2018-06-17T11:32:22.909Z,6.43
2018-06-17T11:34:51.986Z,6.80
2018-06-17T11:37:20.264Z,7.87
2018-06-17T11:39:48.955Z,6.80
2018-06-17T11:42:17.958Z,7.60
2018-06-17T11:44:46.094Z,7.00
2018-06-17T11:47:14.003Z,7.97
2018-06-17T11:49:41.884Z,7.43
2018-06-17T11:52:09.828Z,7.07
2018-06-17T11:54:38.365Z,7.87
2018-06-17T11:57:07.292Z,8.03
2018-06-17T11:59:35.873Z,7.73
2018-06-17T12:02:03.871Z,6.50
2018-06-17T12:04:32.020Z,6.60
2018-06-17T12:06:59.993Z,6.03
2018-06-17T12:09:28.410Z,6.73
2018-06-17T12:11:56.435Z,6.10
2018-06-17T12:14:24.174Z,6.60
2018-06-17T12:16:52.051Z,7.23
2018-06-17T12:19:20.726Z,7.07
2018-06-17T12:21:49.330Z,6.63
2018-06-17T12:24:17.074Z,6.30
2018-06-17T12:26:44.846Z,6.70
2018-06-17T12:29:12.598Z,6.80
2018-06-17T12:31:40.485Z,6.20
2018-06-17T12:34:09.292Z,7.10
2018-06-17T12:36:38.298Z,6.90
2018-06-17T12:39:08.714Z,7.20
2018-06-17T12:41:36.593Z,7.30
2018-06-17T12:44:04.554Z,6.53
2018-06-17T12:46:32.949Z,6.73
2018-06-17T12:49:01.295Z,6.90
2018-06-17T12:51:29.034Z,6.20
2018-06-17T12:53:56.906Z,6.67
2018-06-17T12:56:24.791Z,6.77
2018-06-17T12:58:52.561Z,8.07
2018-06-17T13:01:20.345Z,6.57
2018-06-17T13:03:49.170Z,6.30
2018-06-17T13:06:17.086Z,6.20
2018-06-17T13:08:44.807Z,5.40
2018-06-17T13:11:13.010Z,6.10
2018-06-17T13:13:41.518Z,6.00
2018-06-17T13:16:09.392Z,6.80
2018-06-17T13:18:37.801Z,6.70
2018-06-17T13:21:06.143Z,6.10
2018-06-17T13:23:34.012Z,6.20
2018-06-17T13:26:02.055Z,6.20
2018-06-17T13:28:29.954Z,6.80
2018-06-17T13:30:57.895Z,6.20
2018-06-17T13:33:25.803Z,5.83
2018-06-17T13:35:54.103Z,6.23
2018-06-17T13:38:22.753Z,5.43
2018-06-17T13:40:50.694Z,5.90
2018-06-17T13:43:18.710Z,5.87
2018-06-17T13:45:46.628Z,5.33
2018-06-17T13:48:14.390Z,5.83
2018-06-17T13:50:43.495Z,5.60
2018-06-17T13:53:11.413Z,5.70
2018-06-17T13:55:39.977Z,6.10
2018-06-17T13:58:08.093Z,5.43
2018-06-17T14:00:36.099Z,5.80
2018-06-17T14:03:03.815Z,5.90
2018-06-17T14:05:32.548Z,5.57
2018-06-17T14:08:00.448Z,6.00
2018-06-17T14:10:28.353Z,6.10
2018-06-17T14:12:57.090Z,6.70
2018-06-17T14:15:25.008Z,6.93
2018-06-17T14:17:53.123Z,5.20
2018-06-17T14:20:20.925Z,5.80
2018-06-17T14:22:48.795Z,5.70
2018-06-17T14:25:17.357Z,6.13
2018-06-17T14:27:45.322Z,6.30
2018-06-17T14:30:13.214Z,6.20
2018-06-17T14:32:41.115Z,5.77
2018-06-17T14:35:09.211Z,5.10
2018-06-17T14:37:37.129Z,5.77
2018-06-17T14:40:05.272Z,5.43
2018-06-17T14:42:38.627Z,5.53
2018-06-17T14:45:12.275Z,5.60
2018-06-17T14:47:45.742Z,4.93
2018-06-17T14:51:21.803Z,6.63
2018-06-17T14:53:49.593Z,6.63
2018-06-17T14:56:17.484Z,6.10
2018-06-17T14:58:45.329Z,5.60
2018-06-17T15:01:13.236Z,5.77
2018-06-17T15:03:41.164Z,5.90
2018-06-17T15:06:08.874Z,6.07
2018-06-17T15:08:36.818Z,6.17
2018-06-17T15:11:04.853Z,5.70
2018-06-17T15:13:33.352Z,5.03
2018-06-17T15:16:01.481Z,6.03
2018-06-17T15:18:29.370Z,6.60
2018-06-17T15:20:57.272Z,6.30
2018-06-17T15:23:25.174Z,6.60
2018-06-17T15:25:53.267Z,6.47
2018-06-17T15:28:21.041Z,6.23
2018-06-17T15:30:48.929Z,6.97
2018-06-17T15:33:22.485Z,5.90
2018-06-17T15:35:55.957Z,6.33
2018-06-17T15:38:30.545Z,5.50
2018-06-17T15:41:03.936Z,6.20
2018-06-17T15:43:31.937Z,6.30
2018-06-17T15:45:59.834Z,5.07
2018-06-17T15:48:27.825Z,5.80
2018-06-17T15:50:55.812Z,5.03
2018-06-17T15:53:23.662Z,6.50
2018-06-17T15:55:51.650Z,6.70
2018-06-17T15:58:19.491Z,6.83
2018-06-17T16:00:47.321Z,6.80
2018-06-17T16:03:15.225Z,6.80
2018-06-17T16:05:42.970Z,6.37
2018-06-17T16:08:10.903Z,6.53
2018-06-17T16:10:38.899Z,6.97
2018-06-17T16:13:13.247Z,7.10
2018-06-17T16:15:46.687Z,6.60
2018-06-17T16:18:20.280Z,6.37
2018-06-17T16:20:53.764Z,6.63
2018-06-17T16:23:21.534Z,6.40
2018-06-17T16:25:49.950Z,6.60
2018-06-17T16:28:18.219Z,6.47
2018-06-17T16:30:45.955Z,6.50
2018-06-17T16:33:13.672Z,6.87
2018-06-17T16:35:41.648Z,6.73
2018-06-17T16:38:09.535Z,5.83
2018-06-17T16:40:37.389Z,6.73
2018-06-17T16:43:05.352Z,6.40
2018-06-17T16:45:33.671Z,9.00
2018-06-17T16:48:01.416Z,6.77
2018-06-17T16:50:29.327Z,5.43
2018-06-17T16:54:00.650Z,6.93
2018-06-17T16:56:34.332Z,7.00
2018-06-17T16:59:07.876Z,6.33
2018-06-17T17:01:35.798Z,7.03
2018-06-17T17:04:03.732Z,6.60
2018-06-17T17:06:32.093Z,7.27
2018-06-17T17:08:59.990Z,6.57
2018-06-17T17:11:27.911Z,6.80
2018-06-17T17:13:55.619Z,6.20
2018-06-17T17:16:23.523Z,6.87
2018-06-17T17:18:51.437Z,7.20
2018-06-17T17:21:19.406Z,6.07
2018-06-17T17:23:47.665Z,6.40
2018-06-17T17:26:15.437Z,7.70
2018-06-17T17:28:43.352Z,6.90
2018-06-17T17:31:11.427Z,6.67
2018-06-17T17:33:45.859Z,7.27
2018-06-17T17:36:20.226Z,8.10
2018-06-17T17:38:54.256Z,7.93
2018-06-17T17:41:22.134Z,6.77
2018-06-17T17:43:50.153Z,6.73
2018-06-17T17:46:23.737Z,10.97
2018-06-17T17:48:51.652Z,16.20
2018-06-17T17:51:19.674Z,9.03
2018-06-17T17:53:48.049Z,6.27
2018-06-17T17:56:15.991Z,7.47
2018-06-17T17:58:43.855Z,6.63
2018-06-17T18:01:11.766Z,7.30
2018-06-17T18:03:40.320Z,6.53
2018-06-17T18:06:08.247Z,6.37
2018-06-17T18:08:36.144Z,7.10
2018-06-17T18:11:04.087Z,6.53
2018-06-17T18:13:32.786Z,7.77
2018-06-17T18:16:00.675Z,7.73
2018-06-17T18:18:28.569Z,7.33
2018-06-17T18:20:56.627Z,8.20
2018-06-17T18:23:24.691Z,7.53
2018-06-17T18:25:58.297Z,7.00
2018-06-17T18:28:32.519Z,9.00
2018-06-17T18:31:02.349Z,8.33
2018-06-17T18:33:38.007Z,8.63
2018-06-17T18:36:07.129Z,8.73
2018-06-17T18:38:35.683Z,7.80
2018-06-17T18:41:03.469Z,8.80
2018-06-17T18:43:31.332Z,8.33
2018-06-17T18:45:59.756Z,7.83
2018-06-17T18:48:27.654Z,7.63
2018-06-17T18:50:55.419Z,7.90
2018-06-17T18:53:24.818Z,7.90
2018-06-17T18:55:52.992Z,7.80
2018-06-17T18:58:20.881Z,8.10
2018-06-17T19:00:49.367Z,8.03
2018-06-17T19:03:17.112Z,7.90
2018-06-17T19:05:45.104Z,7.80
2018-06-17T19:08:18.618Z,8.30
2018-06-17T19:10:52.041Z,7.60
2018-06-17T19:13:26.431Z,8.13
2018-06-17T19:16:00.883Z,7.77
2018-06-17T19:18:29.445Z,7.87
2018-06-17T19:20:57.924Z,7.77
2018-06-17T19:23:25.851Z,9.43
2018-06-17T19:25:54.681Z,8.07
2018-06-17T19:28:22.560Z,8.30
2018-06-17T19:30:50.642Z,8.20
2018-06-17T19:33:18.971Z,7.10
2018-06-17T19:35:46.900Z,8.10
2018-06-17T19:38:15.111Z,9.87
2018-06-17T19:40:43.433Z,7.70
2018-06-17T19:43:11.288Z,8.60
2018-06-17T19:45:38.994Z,8.10
2018-06-17T19:48:06.882Z,8.70
2018-06-17T19:50:41.226Z,8.90
2018-06-17T19:53:17.151Z,8.80
2018-06-17T19:55:52.468Z,7.90
2018-06-17T19:58:28.258Z,9.27
2018-06-17T20:00:58.807Z,8.60
2018-06-17T20:03:26.724Z,7.33
2018-06-17T20:05:54.948Z,8.40
2018-06-17T20:08:22.874Z,9.00
2018-06-17T20:10:50.746Z,8.50
2018-06-17T20:13:18.602Z,8.20
2018-06-17T20:15:46.812Z,8.93
2018-06-17T20:18:15.610Z,9.40
2018-06-17T20:20:43.484Z,9.70
2018-06-17T20:23:11.410Z,9.47
2018-06-17T20:25:39.319Z,9.40
2018-06-17T20:28:07.491Z,9.50
2018-06-17T20:30:35.263Z,9.53
2018-06-17T20:33:09.354Z,9.90
2018-06-17T20:36:41.226Z,10.20
2018-06-17T20:39:14.783Z,9.30
2018-06-17T20:41:49.359Z,8.80
2018-06-17T20:44:17.269Z,9.67
2018-06-17T20:46:45.702Z,9.63
2018-06-17T20:49:14.589Z,9.30
2018-06-17T20:51:42.365Z,9.13
2018-06-17T20:54:10.135Z,10.10
2018-06-17T20:56:38.016Z,9.10
2018-06-17T20:59:07.089Z,8.47
2018-06-17T21:01:35.008Z,8.83
2018-06-17T21:04:02.905Z,9.43
2018-06-17T21:06:30.671Z,9.30
2018-06-17T21:08:58.551Z,9.20
2018-06-17T21:11:26.309Z,9.20
2018-06-17T21:13:54.199Z,9.47
2018-06-17T21:16:22.122Z,8.90
2018-06-17T21:18:55.659Z,9.13
2018-06-17T21:21:29.980Z,8.50
2018-06-17T21:24:03.581Z,7.80
2018-06-17T21:26:37.862Z,9.67
2018-06-17T21:29:05.755Z,8.50
2018-06-17T21:31:33.646Z,9.30
2018-06-17T21:34:01.486Z,8.57
2018-06-17T21:36:29.247Z,8.93
2018-06-17T21:38:57.057Z,8.90
2018-06-17T21:41:24.997Z,9.33
2018-06-17T21:43:52.713Z,9.13
2018-06-17T21:46:21.118Z,8.83
2018-06-17T21:48:49.108Z,10.40
2018-06-17T21:51:17.051Z,10.80
2018-06-17T21:53:44.956Z,8.90
2018-06-17T21:56:12.861Z,9.50
2018-06-17T21:58:46.766Z,10.37
2018-06-17T22:01:14.971Z,9.90
2018-06-17T22:03:43.241Z,9.90
2018-06-17T22:06:11.143Z,10.33
2018-06-17T22:08:44.739Z,9.10
2018-06-17T22:11:18.370Z,9.23
2018-06-17T22:13:52.054Z,9.17
2018-06-17T22:16:26.456Z,9.83
2018-06-17T22:18:54.225Z,9.47
2018-06-17T22:21:22.276Z,10.03
2018-06-17T22:23:51.018Z,8.87
2018-06-17T22:26:18.970Z,8.97
2018-06-17T22:28:47.454Z,9.10
2018-06-17T22:31:15.672Z,8.87
2018-06-17T22:33:44.131Z,8.77
2018-06-17T22:36:12.381Z,9.10
2018-06-17T22:38:40.284Z,9.13
2018-06-17T22:41:08.150Z,8.47
2018-06-17T22:43:36.003Z,8.93
2018-06-17T22:46:03.885Z,7.90
2018-06-17T22:48:31.863Z,8.37
2018-06-17T22:50:59.726Z,7.53
2018-06-17T22:53:39.154Z,8.00
2018-06-17T22:56:11.566Z,7.50
2018-06-17T22:58:44.891Z,7.97
2018-06-17T23:01:18.382Z,7.60
2018-06-17T23:03:51.905Z,7.80
2018-06-17T23:06:26.420Z,7.47
2018-06-17T23:09:31.710Z,8.03
2018-06-17T23:12:00.229Z,7.63
2018-06-17T23:14:27.953Z,8.77
2018-06-17T23:16:56.454Z,8.33
2018-06-17T23:19:24.309Z,7.70
2018-06-17T23:21:52.223Z,8.30
2018-06-17T23:24:20.267Z,8.20
2018-06-17T23:26:48.160Z,7.57
2018-06-17T23:29:16.327Z,7.63
2018-06-17T23:31:44.061Z,7.43
2018-06-17T23:34:11.844Z,7.20
2018-06-17T23:36:39.570Z,7.03
2018-06-17T23:39:09.292Z,7.40
2018-06-17T23:41:37.036Z,7.43
2018-06-17T23:44:04.946Z,7.30
2018-06-17T23:46:38.285Z,6.37
2018-06-17T23:51:48.416Z,6.23
2018-06-17T23:54:22.197Z,6.43
2018-06-17T23:56:50.564Z,6.50
2018-06-17T23:59:18.444Z,6.93
